createdAt,value
2022-09-02T00:01:45.078Z,7.60
2022-09-02T00:04:22.318Z,7.60
2022-09-02T00:06:52.139Z,7.50
2022-09-02T00:09:23.080Z,7.50
2022-09-02T00:11:52.121Z,7.50
2022-09-02T00:14:23.344Z,7.40
2022-09-02T00:16:54.008Z,7.40
2022-09-02T00:19:24.441Z,7.40
2022-09-02T00:21:53.778Z,7.40
2022-09-02T00:24:22.386Z,7.40
2022-09-02T00:26:50.047Z,7.50
2022-09-02T00:29:18.160Z,7.50
2022-09-02T00:31:46.766Z,7.60
2022-09-02T00:34:15.660Z,7.60
2022-09-02T00:36:43.378Z,7.60
2022-09-02T00:39:11.060Z,7.60
2022-09-02T00:41:40.838Z,7.70
2022-09-02T00:44:12.041Z,7.70
2022-09-02T00:46:39.998Z,7.80
2022-09-02T00:49:31.094Z,7.70
2022-09-02T00:52:04.936Z,7.80
2022-09-02T00:54:35.605Z,7.80
2022-09-02T00:57:07.486Z,7.80
2022-09-02T01:00:02.669Z,7.80
2022-09-02T01:02:31.964Z,7.80
2022-09-02T01:05:00.734Z,7.90
2022-09-02T01:07:34.419Z,7.80
2022-09-02T01:10:03.778Z,7.80
2022-09-02T01:12:32.658Z,7.70
2022-09-02T01:15:00.339Z,7.70
2022-09-02T01:17:27.855Z,7.60
2022-09-02T01:20:07.413Z,7.50
2022-09-02T01:22:34.865Z,7.40
2022-09-02T01:25:08.694Z,7.30
2022-09-02T01:27:37.118Z,7.20
2022-09-02T01:30:06.418Z,7.10
2022-09-02T01:32:33.906Z,7.00
2022-09-02T01:35:01.215Z,6.90
2022-09-02T01:37:28.820Z,6.90
2022-09-02T01:39:57.458Z,6.80
2022-09-02T01:42:25.543Z,6.80
2022-09-02T01:44:53.234Z,6.70
2022-09-02T01:47:24.858Z,6.70
2022-09-02T01:49:53.098Z,6.70
2022-09-02T01:52:22.750Z,6.70
2022-09-02T01:54:50.398Z,6.60
2022-09-02T01:57:17.801Z,6.50
2022-09-02T01:59:46.518Z,6.50
2022-09-02T02:02:14.746Z,6.40
2022-09-02T02:04:42.072Z,6.30
2022-09-02T02:07:09.518Z,6.20
2022-09-02T02:09:37.207Z,6.10
2022-09-02T02:12:06.577Z,6.10
2022-09-02T02:14:34.300Z,6.10
2022-09-02T02:17:02.058Z,6.10
2022-09-02T02:19:29.719Z,6.00
2022-09-02T02:21:59.161Z,6.00
2022-09-02T02:24:26.780Z,5.90
2022-09-02T02:26:54.559Z,5.90
2022-09-02T02:29:22.936Z,5.90
2022-09-02T02:31:50.562Z,6.00
2022-09-02T02:34:18.161Z,6.00
2022-09-02T02:36:45.486Z,6.00
2022-09-02T02:39:13.611Z,6.00
2022-09-02T02:41:44.851Z,5.90
2022-09-02T02:44:12.777Z,5.90
2022-09-02T02:46:40.489Z,5.80
2022-09-02T02:49:08.558Z,5.80
2022-09-02T02:51:36.135Z,5.80
2022-09-02T02:54:04.443Z,5.70
2022-09-02T02:56:32.213Z,5.60
2022-09-02T02:59:03.891Z,5.60
2022-09-02T03:01:32.522Z,5.50
2022-09-02T03:03:59.951Z,5.50
2022-09-02T03:06:27.360Z,5.50
2022-09-02T03:08:54.831Z,5.50
2022-09-02T03:11:22.940Z,5.40
2022-09-02T03:13:53.583Z,5.50
2022-09-02T03:16:21.362Z,5.50
2022-09-02T03:18:50.962Z,5.60
2022-09-02T03:21:19.369Z,5.60
2022-09-02T03:23:48.059Z,5.50
2022-09-02T03:26:19.018Z,5.50
2022-09-02T03:28:47.824Z,5.50
2022-09-02T03:31:18.599Z,5.50
2022-09-02T03:33:46.601Z,5.60
2022-09-02T03:36:46.658Z,5.70
2022-09-02T03:39:14.439Z,5.70
2022-09-02T03:41:41.912Z,5.70
2022-09-02T03:44:10.092Z,5.80
2022-09-02T03:46:37.750Z,5.80
2022-09-02T03:49:05.370Z,6.00
2022-09-02T03:51:33.347Z,6.00
2022-09-02T03:54:05.119Z,6.00
2022-09-02T03:56:32.647Z,6.00
2022-09-02T03:59:00.959Z,5.90
2022-09-02T04:01:34.597Z,5.90
2022-09-02T04:04:03.762Z,5.80
2022-09-02T04:06:32.394Z,5.80
2022-09-02T04:09:00.590Z,5.90
2022-09-02T04:11:27.919Z,5.90
2022-09-02T04:13:55.220Z,5.80
2022-09-02T04:16:29.034Z,5.80
2022-09-02T04:18:58.413Z,5.90
2022-09-02T04:21:27.068Z,5.90
2022-09-02T04:23:54.799Z,5.90
2022-09-02T04:26:23.233Z,5.90
2022-09-02T04:28:51.618Z,6.10
2022-09-02T04:31:20.774Z,6.30
2022-09-02T04:33:49.769Z,6.40
2022-09-02T04:36:18.587Z,6.40
2022-09-02T04:38:47.889Z,6.50
2022-09-02T04:41:23.034Z,6.40
2022-09-02T04:43:52.508Z,6.60
2022-09-02T04:46:28.071Z,6.60
2022-09-02T04:49:03.903Z,6.70
2022-09-02T04:51:31.479Z,6.80
2022-09-02T04:53:59.119Z,6.90
2022-09-02T04:56:28.736Z,7.00
2022-09-02T04:58:57.099Z,7.00
2022-09-02T05:01:28.364Z,7.10
2022-09-02T05:03:55.935Z,7.30
2022-09-02T05:06:29.075Z,7.40
2022-09-02T05:08:57.979Z,7.60
2022-09-02T05:11:31.475Z,7.90
2022-09-02T05:14:02.476Z,8.10
2022-09-02T05:16:36.970Z,8.30
2022-09-02T05:19:07.075Z,8.30
2022-09-02T05:21:34.418Z,8.30
2022-09-02T05:24:02.019Z,8.30
2022-09-02T05:26:29.396Z,8.40
2022-09-02T05:28:56.690Z,8.20
2022-09-02T05:31:24.172Z,8.10
2022-09-02T05:33:52.204Z,8.10
2022-09-02T05:36:21.679Z,8.10
2022-09-02T05:38:50.077Z,8.00
2022-09-02T05:41:24.010Z,8.00
2022-09-02T05:43:53.930Z,8.10
2022-09-02T05:46:23.850Z,8.40
2022-09-02T05:49:10.077Z,8.80
2022-09-02T05:51:44.475Z,9.80
2022-09-02T05:54:18.862Z,10.90
2022-09-02T05:56:48.470Z,12.00
2022-09-02T05:59:16.092Z,14.70
2022-09-02T06:01:44.093Z,17.70
2022-09-02T06:04:11.426Z,19.50
2022-09-02T06:06:38.910Z,21.20
2022-09-02T06:09:08.825Z,23.20
2022-09-02T06:11:40.260Z,23.90
2022-09-02T06:14:08.192Z,23.90
2022-09-02T06:16:36.545Z,21.20
2022-09-02T06:19:04.204Z,19.50
2022-09-02T06:21:33.427Z,18.90
2022-09-02T06:24:01.132Z,19.40
2022-09-02T06:26:28.580Z,19.20
2022-09-02T06:28:56.617Z,19.40
2022-09-02T06:31:25.029Z,19.10
2022-09-02T06:33:56.480Z,18.60
2022-09-02T06:36:28.234Z,17.80
2022-09-02T06:38:58.029Z,17.20
2022-09-02T06:41:32.260Z,16.10
2022-09-02T06:44:03.798Z,15.20
2022-09-02T06:46:38.403Z,14.90
2022-09-02T06:49:08.420Z,14.70
2022-09-02T06:51:42.176Z,14.30
2022-09-02T06:54:14.210Z,14.10
2022-09-02T06:56:46.015Z,13.90
2022-09-02T06:59:17.670Z,13.80
2022-09-02T07:01:46.231Z,13.80
2022-09-02T07:04:33.062Z,13.80
2022-09-02T07:07:01.902Z,13.70
2022-09-02T07:09:31.455Z,14.20
2022-09-02T07:12:04.730Z,14.70
2022-09-02T07:14:36.683Z,14.90
2022-09-02T07:17:04.355Z,15.70
2022-09-02T07:19:32.275Z,16.20
2022-09-02T07:21:59.449Z,16.10
2022-09-02T07:24:26.769Z,16.20
2022-09-02T07:26:55.877Z,17.50
2022-09-02T07:29:23.858Z,20.60
2022-09-02T07:31:51.295Z,22.20
2022-09-02T07:34:20.114Z,25.30
2022-09-02T07:36:48.733Z,27.10
2022-09-02T07:39:18.029Z,28.50
2022-09-02T07:41:48.527Z,27.60
2022-09-02T07:44:20.384Z,29.10
2022-09-02T07:46:48.015Z,28.50
2022-09-02T07:49:16.891Z,30.00
2022-09-02T07:51:49.457Z,31.90
2022-09-02T07:54:20.906Z,30.70
2022-09-02T07:56:50.092Z,30.40
2022-09-02T07:59:18.511Z,28.90
2022-09-02T08:01:49.141Z,27.40
2022-09-02T08:04:19.837Z,28.10
2022-09-02T08:06:47.320Z,27.00
2022-09-02T08:09:14.997Z,24.90
2022-09-02T08:11:45.419Z,23.40
2022-09-02T08:14:18.116Z,22.30
2022-09-02T08:16:47.124Z,20.90
2022-09-02T08:19:15.473Z,19.50
2022-09-02T08:21:42.659Z,18.80
2022-09-02T08:24:10.469Z,18.10
2022-09-02T08:26:38.471Z,17.20
2022-09-02T08:29:07.388Z,16.20
2022-09-02T08:31:36.991Z,16.00
2022-09-02T08:34:04.693Z,15.60
2022-09-02T08:36:32.072Z,15.20
2022-09-02T08:39:01.994Z,14.90
2022-09-02T08:41:40.251Z,14.30
2022-09-02T08:44:13.391Z,14.10
2022-09-02T08:46:41.402Z,13.90
2022-09-02T08:49:16.842Z,13.90
2022-09-02T08:52:01.708Z,15.40
2022-09-02T08:54:41.509Z,17.60
2022-09-02T08:57:12.076Z,20.00
2022-09-02T09:02:33.811Z,22.20
2022-09-02T09:05:31.124Z,23.10
2022-09-02T09:08:25.030Z,23.30
2022-09-02T09:11:01.676Z,22.00
2022-09-02T09:13:47.620Z,20.00
2022-09-02T09:16:35.472Z,19.60
2022-09-02T09:19:18.027Z,19.20
2022-09-02T09:21:45.732Z,19.10
2022-09-02T09:24:40.051Z,17.70
2022-09-02T09:27:19.637Z,18.00
2022-09-02T09:29:47.949Z,18.50
2022-09-02T09:32:29.105Z,18.20
2022-09-02T09:35:01.895Z,18.20
2022-09-02T09:37:38.754Z,17.80
2022-09-02T09:40:31.937Z,17.40
2022-09-02T09:43:06.427Z,16.60
2022-09-02T09:45:45.335Z,16.20
2022-09-02T09:48:15.686Z,15.80
2022-09-02T09:51:13.399Z,15.70
2022-09-02T09:53:41.048Z,15.70
2022-09-02T09:56:28.845Z,15.60
2022-09-02T09:58:56.438Z,15.70
2022-09-02T10:01:33.275Z,15.30
2022-09-02T10:04:42.238Z,15.80
2022-09-02T10:07:00.591Z,15.40
2022-09-02T10:09:36.277Z,15.20
2022-09-02T10:12:09.282Z,15.30
2022-09-02T10:14:46.719Z,15.30
2022-09-02T10:17:41.780Z,15.60
2022-09-02T10:20:28.400Z,15.90
2022-09-02T10:23:11.219Z,15.90
2022-09-02T10:26:03.953Z,15.70
2022-09-02T10:29:09.012Z,15.90
2022-09-02T10:31:42.486Z,15.40
2022-09-02T10:34:55.900Z,15.80
2022-09-02T10:37:35.863Z,16.50
2022-09-02T10:40:25.700Z,16.80
2022-09-02T10:43:06.004Z,16.70
2022-09-02T10:45:46.366Z,16.20
2022-09-02T10:48:36.947Z,15.20
2022-09-02T10:51:42.026Z,14.90
2022-09-02T10:54:12.445Z,14.80
2022-09-02T10:57:03.931Z,14.40
2022-09-02T11:00:01.499Z,14.90
2022-09-02T11:02:35.544Z,15.40
2022-09-02T11:05:08.491Z,15.80
2022-09-02T11:07:49.847Z,15.80
2022-09-02T11:10:53.724Z,15.50
2022-09-02T11:13:40.360Z,14.90
2022-09-02T11:16:15.648Z,14.40
2022-09-02T11:19:18.148Z,14.20
2022-09-02T11:21:54.995Z,14.10
2022-09-02T11:24:46.483Z,14.10
2022-09-02T11:27:38.881Z,14.60
2022-09-02T11:30:13.700Z,15.00
2022-09-02T11:32:41.770Z,15.50
2022-09-02T11:35:17.262Z,15.50
2022-09-02T11:37:50.237Z,15.90
2022-09-02T11:44:14.749Z,16.10
2022-09-02T11:46:55.095Z,16.30
2022-09-02T11:49:47.760Z,16.60
2022-09-02T11:55:24.675Z,16.30
2022-09-02T11:57:54.416Z,15.80
2022-09-02T12:00:37.245Z,15.70
2022-09-02T12:03:28.562Z,15.70
2022-09-02T12:06:17.621Z,16.20
2022-09-02T12:08:45.268Z,16.80
2022-09-02T12:11:31.988Z,16.00
2022-09-02T12:14:02.802Z,15.90
2022-09-02T12:16:36.872Z,14.80
2022-09-02T12:19:10.978Z,14.90
2022-09-02T12:22:16.570Z,14.90
2022-09-02T12:24:58.993Z,15.10
2022-09-02T12:27:37.793Z,15.20
2022-09-02T12:30:09.592Z,15.30
2022-09-02T12:32:51.700Z,15.40
2022-09-02T12:35:41.091Z,15.90
2022-09-02T12:38:11.016Z,16.30
2022-09-02T12:40:55.483Z,16.50
2022-09-02T12:43:54.507Z,16.80
2022-09-02T12:46:26.598Z,16.90
2022-09-02T12:49:13.680Z,17.00
2022-09-02T12:51:57.529Z,17.00
2022-09-02T12:54:48.063Z,16.40
2022-09-02T12:57:17.509Z,16.40
2022-09-02T12:59:47.911Z,16.60
2022-09-02T13:02:19.689Z,16.30
2022-09-02T13:05:16.287Z,15.90
2022-09-02T13:07:46.931Z,16.00
2022-09-02T13:10:23.430Z,15.50
2022-09-02T13:13:23.237Z,15.30
2022-09-02T13:16:18.664Z,15.00
2022-09-02T13:19:05.271Z,14.70
2022-09-02T13:21:50.369Z,14.50
2022-09-02T13:24:29.989Z,14.00
2022-09-02T13:27:24.032Z,13.80
2022-09-02T13:30:06.710Z,13.30
2022-09-02T13:32:35.433Z,13.20
2022-09-02T13:35:25.255Z,12.80
2022-09-02T13:38:01.272Z,12.60
2022-09-02T13:40:37.133Z,12.90
2022-09-02T13:43:26.192Z,13.30
2022-09-02T13:45:59.824Z,13.70
2022-09-02T13:48:32.805Z,14.00
2022-09-02T13:51:13.762Z,14.40
2022-09-02T13:54:05.459Z,14.50
2022-09-02T13:56:33.355Z,14.60
2022-09-02T13:59:00.855Z,14.80
2022-09-02T14:01:38.268Z,14.40
2022-09-02T14:04:17.528Z,14.60
2022-09-02T14:06:48.672Z,14.70
2022-09-02T14:09:22.367Z,14.70
2022-09-02T14:11:50.875Z,15.00
2022-09-02T14:14:21.846Z,14.80
2022-09-02T14:16:49.259Z,15.00
2022-09-02T14:19:22.727Z,14.60
2022-09-02T14:21:53.197Z,14.70
2022-09-02T14:24:37.714Z,14.90
2022-09-02T14:27:18.554Z,15.30
2022-09-02T14:29:49.919Z,15.10
2022-09-02T14:32:24.634Z,15.40
2022-09-02T14:35:17.015Z,15.40
2022-09-02T14:37:56.215Z,15.80
2022-09-02T14:40:36.497Z,15.70
2022-09-02T14:43:05.054Z,15.50
2022-09-02T14:45:35.254Z,15.20
2022-09-02T14:48:13.386Z,15.00
2022-09-02T14:50:41.894Z,14.70
2022-09-02T14:53:11.341Z,14.60
2022-09-02T14:55:59.377Z,14.50
2022-09-02T14:58:28.652Z,14.40
2022-09-02T15:01:01.887Z,14.40
2022-09-02T15:03:37.606Z,14.30
2022-09-02T15:06:05.276Z,14.20
2022-09-02T15:08:32.832Z,14.20
2022-09-02T15:11:01.251Z,14.10
2022-09-02T15:13:34.719Z,14.10
2022-09-02T15:16:03.202Z,14.00
2022-09-02T15:18:31.680Z,14.00
2022-09-02T15:20:59.043Z,13.80
2022-09-02T15:23:28.624Z,13.90
2022-09-02T15:25:57.307Z,14.00
2022-09-02T15:28:24.731Z,14.00
2022-09-02T15:30:59.748Z,14.00
2022-09-02T15:33:28.139Z,14.00
2022-09-02T15:36:04.740Z,13.90
2022-09-02T15:38:32.182Z,13.90
2022-09-02T15:41:14.306Z,13.90
2022-09-02T15:43:42.092Z,13.80
2022-09-02T15:46:27.825Z,13.90
2022-09-02T15:49:02.193Z,13.90
2022-09-02T15:51:30.272Z,13.90
2022-09-02T15:53:59.417Z,14.00
2022-09-02T15:56:28.515Z,14.00
2022-09-02T15:58:58.851Z,14.10
2022-09-02T16:01:34.663Z,14.20
2022-09-02T16:04:02.711Z,14.20
2022-09-02T16:06:31.660Z,14.00
2022-09-02T16:08:59.613Z,14.00
2022-09-02T16:11:27.047Z,14.00
2022-09-02T16:13:54.941Z,14.00
2022-09-02T16:16:22.937Z,14.10
2022-09-02T16:18:52.799Z,14.00
2022-09-02T16:21:21.852Z,14.10
2022-09-02T16:23:52.851Z,14.00
2022-09-02T16:26:40.713Z,14.00
2022-09-02T16:29:10.075Z,14.00
2022-09-02T16:31:39.944Z,14.20
2022-09-02T16:34:13.162Z,13.90
2022-09-02T16:36:44.091Z,13.90
2022-09-02T16:39:13.151Z,13.90
2022-09-02T16:41:44.305Z,13.90
2022-09-02T16:44:16.325Z,13.60
2022-09-02T16:46:45.029Z,13.50
2022-09-02T16:49:18.741Z,13.30
2022-09-02T16:51:47.388Z,13.00
2022-09-02T16:54:17.856Z,12.80
2022-09-02T16:56:49.505Z,12.70
2022-09-02T16:59:19.315Z,12.60
2022-09-02T17:01:46.708Z,12.40
2022-09-02T17:04:14.008Z,12.20
2022-09-02T17:06:42.393Z,12.00
2022-09-02T17:09:10.352Z,11.90
2022-09-02T17:11:41.436Z,11.80
2022-09-02T17:14:11.690Z,11.70
2022-09-02T17:16:43.054Z,11.40
2022-09-02T17:19:11.045Z,11.30
2022-09-02T17:21:47.385Z,11.10
2022-09-02T17:24:15.855Z,10.90
2022-09-02T17:26:47.272Z,10.70
2022-09-02T17:29:47.644Z,10.40
2022-09-02T17:32:08.320Z,10.10
2022-09-02T17:34:35.665Z,9.90
2022-09-02T17:37:03.467Z,9.80
2022-09-02T17:39:31.699Z,9.70
2022-09-02T17:41:59.044Z,9.50
2022-09-02T17:44:36.136Z,9.30
2022-09-02T17:47:10.291Z,9.10
2022-09-02T17:49:39.365Z,9.00
2022-09-02T17:52:08.397Z,8.80
2022-09-02T17:54:38.060Z,8.60
2022-09-02T17:57:10.668Z,8.50
2022-09-02T18:00:01.602Z,8.40
2022-09-02T18:03:12.432Z,8.20
2022-09-02T18:05:55.854Z,8.20
2022-09-02T18:08:35.975Z,8.00
2022-09-02T18:11:06.078Z,7.90
2022-09-02T18:13:40.377Z,7.80
2022-09-02T18:16:10.661Z,7.60
2022-09-02T18:19:01.838Z,7.70
2022-09-02T18:21:46.829Z,7.60
2022-09-02T18:24:35.455Z,7.70
2022-09-02T18:27:33.248Z,7.80
2022-09-02T18:30:08.796Z,7.70
2022-09-02T18:33:00.316Z,7.40
2022-09-02T18:35:52.116Z,7.30
2022-09-02T18:38:32.253Z,7.20
2022-09-02T18:41:03.315Z,7.10
2022-09-02T18:43:32.272Z,7.30
2022-09-02T18:46:02.332Z,7.30
2022-09-02T18:48:36.478Z,7.30
2022-09-02T18:51:32.499Z,7.20
2022-09-02T18:54:24.375Z,7.10
2022-09-02T18:57:07.926Z,6.90
2022-09-02T18:59:55.435Z,6.70
2022-09-02T19:02:44.462Z,6.60
2022-09-02T19:05:20.543Z,6.50
2022-09-02T19:08:19.815Z,6.50
2022-09-02T19:10:47.899Z,6.70
2022-09-02T19:13:17.608Z,6.40
2022-09-02T19:15:45.288Z,6.30
2022-09-02T19:18:12.630Z,6.10
2022-09-02T19:20:41.206Z,6.10
2022-09-02T19:23:12.675Z,6.10
2022-09-02T19:25:44.782Z,6.10
2022-09-02T19:28:14.807Z,6.10
2022-09-02T19:30:42.125Z,5.90
2022-09-02T19:33:13.830Z,5.80
2022-09-02T19:35:52.239Z,5.80
2022-09-02T19:38:22.594Z,5.80
2022-09-02T19:40:50.682Z,5.80
2022-09-02T19:43:18.014Z,5.80
2022-09-02T19:45:50.312Z,5.80
2022-09-02T19:48:19.386Z,5.80
2022-09-02T19:50:48.787Z,5.90
2022-09-02T19:53:30.542Z,5.80
2022-09-02T19:56:02.790Z,5.80
2022-09-02T19:58:30.474Z,5.80
2022-09-02T20:00:59.500Z,5.80
2022-09-02T20:03:28.256Z,5.70
2022-09-02T20:05:55.771Z,5.70
2022-09-02T20:08:29.413Z,5.60
2022-09-02T20:11:00.826Z,5.50
2022-09-02T20:13:29.842Z,5.50
2022-09-02T20:15:57.976Z,5.40
2022-09-02T20:18:28.746Z,5.50
2022-09-02T20:20:59.326Z,5.30
2022-09-02T20:23:28.726Z,5.10
2022-09-02T20:26:19.227Z,5.00
2022-09-02T20:28:53.374Z,5.10
2022-09-02T20:31:50.372Z,5.00
2022-09-02T20:34:29.976Z,5.10
2022-09-02T20:37:38.007Z,4.90
2022-09-02T20:40:14.892Z,5.00
2022-09-02T20:43:03.975Z,5.10
2022-09-02T20:45:40.708Z,5.00
2022-09-02T20:48:33.237Z,5.00
2022-09-02T20:51:26.857Z,4.80
2022-09-02T20:54:31.906Z,4.60
2022-09-02T20:57:22.747Z,4.70
2022-09-02T21:00:12.635Z,4.80
2022-09-02T21:02:56.840Z,4.80
2022-09-02T21:05:51.218Z,4.80
2022-09-02T21:08:46.040Z,4.60
2022-09-02T21:11:16.174Z,4.50
2022-09-02T21:13:55.527Z,4.40
2022-09-02T21:16:50.296Z,4.40
2022-09-02T21:19:29.629Z,4.30
2022-09-02T21:22:09.551Z,4.30
2022-09-02T21:25:27.036Z,4.30
2022-09-02T21:28:09.419Z,4.20
2022-09-02T21:30:45.987Z,4.10
2022-09-02T21:33:19.864Z,4.10
2022-09-02T21:35:51.666Z,4.10
2022-09-02T21:38:28.968Z,4.00
2022-09-02T21:41:11.992Z,3.90
2022-09-02T21:44:17.118Z,3.90
2022-09-02T21:47:04.186Z,4.00
2022-09-02T21:49:43.771Z,4.00
2022-09-02T21:52:27.219Z,4.00
2022-09-02T21:55:15.755Z,4.00
2022-09-02T21:58:12.763Z,4.00
2022-09-02T22:00:47.900Z,3.90
2022-09-02T22:03:31.199Z,3.60
2022-09-02T22:06:07.328Z,3.60
2022-09-02T22:08:34.711Z,3.70
2022-09-02T22:11:09.652Z,3.70
2022-09-02T22:13:42.268Z,3.60
2022-09-02T22:16:18.992Z,3.50
2022-09-02T22:19:00.883Z,3.40
2022-09-02T22:21:50.918Z,3.30
2022-09-02T22:24:27.697Z,3.20
2022-09-02T22:27:06.582Z,3.20
2022-09-02T22:29:40.628Z,3.20
2022-09-02T22:32:10.747Z,3.20
2022-09-02T22:34:59.785Z,3.20
2022-09-02T22:37:40.282Z,3.20
2022-09-02T22:40:14.737Z,3.10
2022-09-02T22:42:44.493Z,3.10
2022-09-02T22:45:47.169Z,3.10
2022-09-02T22:48:36.834Z,3.10
2022-09-02T22:51:32.578Z,3.10
2022-09-02T22:54:00.145Z,3.20
2022-09-02T22:56:30.732Z,2.90
2022-09-02T22:59:20.816Z,2.90
2022-09-02T23:01:56.023Z,3.00
2022-09-02T23:04:34.762Z,2.90
2022-09-02T23:07:05.371Z,2.90
2022-09-02T23:09:39.594Z,2.70
2022-09-02T23:12:07.116Z,2.80
2022-09-02T23:14:44.715Z,2.70
2022-09-02T23:17:23.882Z,2.60
2022-09-02T23:20:20.075Z,2.50
2022-09-02T23:23:33.301Z,2.50
2022-09-02T23:26:31.201Z,2.40
2022-09-02T23:29:26.473Z,2.50
2022-09-02T23:32:04.750Z,2.60
2022-09-02T23:35:04.286Z,2.60
2022-09-02T23:37:44.051Z,2.60
2022-09-02T23:40:22.595Z,2.60
2022-09-02T23:42:50.696Z,2.60
2022-09-02T23:45:24.858Z,2.60
2022-09-02T23:48:16.423Z,2.60
2022-09-02T23:51:10.687Z,2.70
2022-09-02T23:53:41.149Z,2.60
2022-09-02T23:56:42.196Z,2.60
2022-09-02T23:59:15.186Z,2.40
